sensor_id;sensor_type;location;lat;lon;timestamp;pressure;altitude;pressure_sealevel;temperature;humidity
788;BME280;16074;42.708;23.312;2023-06-14T00:00:04;142457.69;;;17.15;100.00
788;BME280;16074;42.708;23.312;2023-06-14T00:02:35;142457.69;;;17.15;100.00
788;BME280;16074;42.708;23.312;2023-06-14T00:05:06;142460.09;;;17.16;100.00
788;BME280;16074;42.708;23.312;2023-06-14T00:07:35;142481.94;;;17.25;100.00
788;BME280;16074;42.708;23.312;2023-06-14T00:10:06;142484.34;;;17.26;100.00
788;BME280;16074;42.708;23.312;2023-06-14T00:12:35;142514.66;;;17.38;100.00
788;BME280;16074;42.708;23.312;2023-06-14T00:15:04;142521.94;;;17.41;100.00
788;BME280;16074;42.708;23.312;2023-06-14T00:17:33;142530.44;;;17.45;100.00
788;BME280;16074;42.708;23.312;2023-06-14T00:20:02;142536.47;;;17.47;100.00
788;BME280;16074;42.708;23.312;2023-06-14T00:22:33;142547.41;;;17.52;100.00
788;BME280;16074;42.708;23.312;2023-06-14T00:25:04;142558.31;;;17.56;100.00
788;BME280;16074;42.708;23.312;2023-06-14T00:27:54;142570.44;;;17.61;100.00
788;BME280;16074;42.708;23.312;2023-06-14T00:30:22;142570.44;;;17.61;100.00
788;BME280;16074;42.708;23.312;2023-06-14T00:32:51;142558.31;;;17.56;100.00
788;BME280;16074;42.708;23.312;2023-06-14T00:35:20;142565.56;;;17.59;100.00
788;BME280;16074;42.708;23.312;2023-06-14T00:37:49;142528.03;;;17.44;100.00
788;BME280;16074;42.708;23.312;2023-06-14T00:40:18;142535.28;;;17.47;100.00
788;BME280;16074;42.708;23.312;2023-06-14T00:42:46;142560.72;;;17.57;100.00
788;BME280;16074;42.708;23.312;2023-06-14T00:45:15;142572.84;;;17.62;100.00
788;BME280;16074;42.708;23.312;2023-06-14T00:47:45;142577.69;;;17.64;100.00
788;BME280;16074;42.708;23.312;2023-06-14T00:50:15;142583.75;;;17.67;100.00
788;BME280;16074;42.708;23.312;2023-06-14T00:52:44;142575.28;;;17.63;100.00
788;BME280;16074;42.708;23.312;2023-06-14T00:55:14;142580.13;;;17.65;100.00
788;BME280;16074;42.708;23.312;2023-06-14T00:57:42;142558.31;;;17.56;100.00
788;BME280;16074;42.708;23.312;2023-06-14T01:00:13;142549.84;;;17.53;100.00
788;BME280;16074;42.708;23.312;2023-06-14T01:03:01;142555.88;;;17.55;100.00
788;BME280;16074;42.708;23.312;2023-06-14T01:05:34;142561.91;;;17.58;100.00
788;BME280;16074;42.708;23.312;2023-06-14T01:08:11;142555.88;;;17.55;100.00
788;BME280;16074;42.708;23.312;2023-06-14T01:10:47;142549.84;;;17.53;100.00
788;BME280;16074;42.708;23.312;2023-06-14T01:13:21;142559.50;;;17.57;100.00
788;BME280;16074;42.708;23.312;2023-06-14T01:15:52;142569.19;;;17.61;100.00
788;BME280;16074;42.708;23.312;2023-06-14T01:18:22;142541.34;;;17.49;100.00
788;BME280;16074;42.708;23.312;2023-06-14T01:20:53;142528.03;;;17.44;100.00
788;BME280;16074;42.708;23.312;2023-06-14T01:23:25;142534.06;;;17.46;100.00
788;BME280;16074;42.708;23.312;2023-06-14T01:25:59;142529.22;;;17.44;100.00
788;BME280;16074;42.708;23.312;2023-06-14T01:28:31;142534.06;;;17.46;100.00
788;BME280;16074;42.708;23.312;2023-06-14T01:31:02;142537.72;;;17.48;100.00
788;BME280;16074;42.708;23.312;2023-06-14T01:33:33;142530.44;;;17.45;100.00
788;BME280;16074;42.708;23.312;2023-06-14T01:36:04;142548.59;;;17.52;100.00
788;BME280;16074;42.708;23.312;2023-06-14T01:38:36;142547.41;;;17.52;100.00
788;BME280;16074;42.708;23.312;2023-06-14T01:41:05;142543.75;;;17.50;100.00
788;BME280;16074;42.708;23.312;2023-06-14T01:43:34;142529.22;;;17.44;100.00
788;BME280;16074;42.708;23.312;2023-06-14T01:46:05;142529.22;;;17.44;100.00
788;BME280;16074;42.708;23.312;2023-06-14T01:48:34;142504.97;;;17.34;100.00
788;BME280;16074;42.708;23.312;2023-06-14T01:51:03;142517.09;;;17.39;100.00
788;BME280;16074;42.708;23.312;2023-06-14T01:53:31;142524.38;;;17.42;100.00
788;BME280;16074;42.708;23.312;2023-06-14T01:56:01;142523.19;;;17.42;100.00
788;BME280;16074;42.708;23.312;2023-06-14T01:58:31;142532.88;;;17.46;100.00
788;BME280;16074;42.708;23.312;2023-06-14T02:01:00;142555.88;;;17.55;100.00
788;BME280;16074;42.708;23.312;2023-06-14T02:03:29;142542.56;;;17.50;100.00
788;BME280;16074;42.708;23.312;2023-06-14T02:05:58;142536.47;;;17.47;100.00
788;BME280;16074;42.708;23.312;2023-06-14T02:08:27;142525.59;;;17.43;100.00
788;BME280;16074;42.708;23.312;2023-06-14T02:10:55;142525.59;;;17.43;100.00
788;BME280;16074;42.708;23.312;2023-06-14T02:13:24;142521.94;;;17.41;100.00
788;BME280;16074;42.708;23.312;2023-06-14T02:15:53;142524.38;;;17.42;100.00
788;BME280;16074;42.708;23.312;2023-06-14T02:18:22;142521.94;;;17.41;100.00
788;BME280;16074;42.708;23.312;2023-06-14T02:20:51;142514.66;;;17.38;100.00
788;BME280;16074;42.708;23.312;2023-06-14T02:23:19;142507.41;;;17.35;100.00
788;BME280;16074;42.708;23.312;2023-06-14T02:25:48;142490.38;;;17.28;100.00
788;BME280;16074;42.708;23.312;2023-06-14T02:28:16;142501.38;;;17.33;100.00
788;BME280;16074;42.708;23.312;2023-06-14T02:30:46;142484.34;;;17.26;100.00
788;BME280;16074;42.708;23.312;2023-06-14T02:33:14;142488.00;;;17.27;100.00
788;BME280;16074;42.708;23.312;2023-06-14T02:35:44;142490.38;;;17.28;100.00
788;BME280;16074;42.708;23.312;2023-06-14T02:38:13;142463.78;;;17.17;100.00
788;BME280;16074;42.708;23.312;2023-06-14T02:40:41;142444.38;;;17.09;100.00
788;BME280;16074;42.708;23.312;2023-06-14T02:43:10;142412.88;;;16.96;100.00
788;BME280;16074;42.708;23.312;2023-06-14T02:45:38;142406.84;;;16.94;100.00
788;BME280;16074;42.708;23.312;2023-06-14T02:48:09;142433.44;;;17.05;100.00
788;BME280;16074;42.708;23.312;2023-06-14T02:50:40;142433.44;;;17.05;100.00
788;BME280;16074;42.708;23.312;2023-06-14T02:53:08;142432.25;;;17.04;100.00
788;BME280;16074;42.708;23.312;2023-06-14T02:55:37;142406.84;;;16.94;100.00
788;BME280;16074;42.708;23.312;2023-06-14T02:58:08;142420.16;;;16.99;100.00
788;BME280;16074;42.708;23.312;2023-06-14T03:00:37;142429.84;;;17.03;100.00
788;BME280;16074;42.708;23.312;2023-06-14T03:03:06;142429.84;;;17.03;100.00
788;BME280;16074;42.708;23.312;2023-06-14T03:05:44;142418.97;;;16.99;100.00
788;BME280;16074;42.708;23.312;2023-06-14T03:08:16;142445.56;;;17.10;100.00
788;BME280;16074;42.708;23.312;2023-06-14T03:10:49;142450.41;;;17.12;100.00
788;BME280;16074;42.708;23.312;2023-06-14T03:13:18;142434.69;;;17.05;100.00
788;BME280;16074;42.708;23.312;2023-06-14T03:15:48;142444.38;;;17.09;100.00
788;BME280;16074;42.708;23.312;2023-06-14T03:18:19;142458.94;;;17.15;100.00
788;BME280;16074;42.708;23.312;2023-06-14T03:20:55;142467.38;;;17.19;100.00
788;BME280;16074;42.708;23.312;2023-06-14T03:23:26;142463.78;;;17.17;100.00
788;BME280;16074;42.708;23.312;2023-06-14T03:25:55;142474.66;;;17.22;100.00
788;BME280;16074;42.708;23.312;2023-06-14T03:28:24;142479.50;;;17.24;100.00
788;BME280;16074;42.708;23.312;2023-06-14T03:30:54;142484.34;;;17.26;100.00
788;BME280;16074;42.708;23.312;2023-06-14T03:33:23;142504.97;;;17.34;100.00
788;BME280;16074;42.708;23.312;2023-06-14T03:35:52;142506.22;;;17.35;100.00
788;BME280;16074;42.708;23.312;2023-06-14T03:38:22;142439.53;;;17.07;100.00
788;BME280;16074;42.708;23.312;2023-06-14T03:40:51;142387.47;;;16.86;100.00
788;BME280;16074;42.708;23.312;2023-06-14T03:43:19;142388.66;;;16.86;100.00
788;BME280;16074;42.708;23.312;2023-06-14T03:45:48;142437.13;;;17.06;100.00
788;BME280;16074;42.708;23.312;2023-06-14T03:48:17;142454.06;;;17.13;100.00
788;BME280;16074;42.708;23.312;2023-06-14T03:50:46;142440.72;;;17.08;100.00
788;BME280;16074;42.708;23.312;2023-06-14T03:53:14;142456.50;;;17.14;100.00
788;BME280;16074;42.708;23.312;2023-06-14T03:55:48;142446.81;;;17.10;100.00
788;BME280;16074;42.708;23.312;2023-06-14T03:58:20;142460.09;;;17.16;100.00
788;BME280;16074;42.708;23.312;2023-06-14T04:00:49;142464.97;;;17.18;100.00
788;BME280;16074;42.708;23.312;2023-06-14T04:03:18;142490.38;;;17.28;100.00
788;BME280;16074;42.708;23.312;2023-06-14T04:05:47;142480.72;;;17.24;100.00
788;BME280;16074;42.708;23.312;2023-06-14T04:08:17;142500.13;;;17.32;100.00
788;BME280;16074;42.708;23.312;2023-06-14T04:10:48;142513.47;;;17.38;100.00
788;BME280;16074;42.708;23.312;2023-06-14T04:13:16;142520.75;;;17.41;100.00
788;BME280;16074;42.708;23.312;2023-06-14T04:15:44;142433.44;;;17.05;100.00
788;BME280;16074;42.708;23.312;2023-06-14T04:18:19;142428.59;;;17.03;100.00
788;BME280;16074;42.708;23.312;2023-06-14T04:20:50;142423.75;;;17.01;100.00
788;BME280;16074;42.708;23.312;2023-06-14T04:23:20;142464.97;;;17.18;100.00
788;BME280;16074;42.708;23.312;2023-06-14T04:25:50;142460.09;;;17.16;100.00
788;BME280;16074;42.708;23.312;2023-06-14T04:28:19;142461.34;;;17.16;100.00
788;BME280;16074;42.708;23.312;2023-06-14T04:30:56;142446.81;;;17.10;100.00
788;BME280;16074;42.708;23.312;2023-06-14T04:33:30;142466.19;;;17.18;100.00
788;BME280;16074;42.708;23.312;2023-06-14T04:35:59;142479.50;;;17.24;100.00
788;BME280;16074;42.708;23.312;2023-06-14T04:38:28;142508.63;;;17.36;100.00
788;BME280;16074;42.708;23.312;2023-06-14T04:40:59;142530.44;;;17.45;100.00
788;BME280;16074;42.708;23.312;2023-06-14T04:43:29;142553.47;;;17.54;100.00
788;BME280;16074;42.708;23.312;2023-06-14T04:45:58;142577.69;;;17.64;100.00
788;BME280;16074;42.708;23.312;2023-06-14T04:48:30;142592.25;;;17.70;100.00
788;BME280;16074;42.708;23.312;2023-06-14T04:50:59;142586.16;;;17.68;100.00
788;BME280;16074;42.708;23.312;2023-06-14T04:53:27;142601.94;;;17.74;100.00
788;BME280;16074;42.708;23.312;2023-06-14T04:55:56;142592.25;;;17.70;100.00
788;BME280;16074;42.708;23.312;2023-06-14T04:58:27;142600.72;;;17.74;100.00
788;BME280;16074;42.708;23.312;2023-06-14T05:00:56;142589.81;;;17.69;100.00
788;BME280;16074;42.708;23.312;2023-06-14T05:03:26;142603.13;;;17.75;100.00
788;BME280;16074;42.708;23.312;2023-06-14T05:05:58;142627.38;;;17.85;100.00
788;BME280;16074;42.708;23.312;2023-06-14T05:08:27;142674.66;;;18.04;100.00
788;BME280;16074;42.708;23.312;2023-06-14T05:10:57;142684.34;;;18.08;100.00
788;BME280;16074;42.708;23.312;2023-06-14T05:13:26;142707.38;;;18.17;100.00
788;BME280;16074;42.708;23.312;2023-06-14T05:15:55;142718.31;;;18.22;100.00
788;BME280;16074;42.708;23.312;2023-06-14T05:18:24;142755.94;;;18.37;100.00
788;BME280;16074;42.708;23.312;2023-06-14T05:20:52;142787.47;;;18.50;100.00
788;BME280;16074;42.708;23.312;2023-06-14T05:23:20;142820.22;;;18.64;100.00
788;BME280;16074;42.708;23.312;2023-06-14T05:25:49;142838.41;;;18.71;100.00
788;BME280;16074;42.708;23.312;2023-06-14T05:28:17;142878.47;;;18.88;100.00
788;BME280;16074;42.708;23.312;2023-06-14T05:30:47;142906.34;;;18.99;100.00
788;BME280;16074;42.708;23.312;2023-06-14T05:33:15;142935.50;;;19.11;100.00
788;BME280;16074;42.708;23.312;2023-06-14T05:35:44;142979.19;;;19.29;100.00
788;BME280;16074;42.708;23.312;2023-06-14T05:38:12;142982.84;;;19.30;100.00
788;BME280;16074;42.708;23.312;2023-06-14T05:40:40;143030.19;;;19.50;100.00
788;BME280;16074;42.708;23.312;2023-06-14T05:43:08;143047.19;;;19.57;100.00
788;BME280;16074;42.708;23.312;2023-06-14T05:45:37;143073.91;;;19.68;100.00
788;BME280;16074;42.708;23.312;2023-06-14T05:48:07;143086.03;;;19.73;100.00
788;BME280;16074;42.708;23.312;2023-06-14T05:50:35;143112.72;;;19.84;100.00
788;BME280;16074;42.708;23.312;2023-06-14T05:53:04;143137.00;;;19.94;100.00
788;BME280;16074;42.708;23.312;2023-06-14T05:55:32;143107.91;;;19.82;100.00
788;BME280;16074;42.708;23.312;2023-06-14T05:58:00;143151.63;;;20.00;100.00
788;BME280;16074;42.708;23.312;2023-06-14T06:00:28;143175.94;;;20.10;100.00
788;BME280;16074;42.708;23.312;2023-06-14T06:02:57;143181.97;;;20.12;100.00
788;BME280;16074;42.708;23.312;2023-06-14T06:05:27;143218.44;;;20.27;100.00
788;BME280;16074;42.708;23.312;2023-06-14T06:07:55;143228.16;;;20.31;100.00
788;BME280;16074;42.708;23.312;2023-06-14T06:10:24;143254.88;;;20.42;100.00
788;BME280;16074;42.708;23.312;2023-06-14T06:12:52;143243.97;;;20.38;100.00
788;BME280;16074;42.708;23.312;2023-06-14T06:15:21;143263.38;;;20.45;100.00
788;BME280;16074;42.708;23.312;2023-06-14T06:17:49;143265.81;;;20.46;100.00
788;BME280;16074;42.708;23.312;2023-06-14T06:20:22;143277.94;;;20.51;100.00
788;BME280;16074;42.708;23.312;2023-06-14T06:22:57;143296.22;;;20.59;100.00
788;BME280;16074;42.708;23.312;2023-06-14T06:25:26;143309.56;;;20.64;100.00
788;BME280;16074;42.708;23.312;2023-06-14T06:27:55;143298.63;;;20.60;100.00
788;BME280;16074;42.708;23.312;2023-06-14T06:30:24;143324.13;;;20.70;100.00
788;BME280;16074;42.708;23.312;2023-06-14T06:32:53;143344.78;;;20.79;100.00
788;BME280;16074;42.708;23.312;2023-06-14T06:35:23;143363.09;;;20.86;100.00
788;BME280;16074;42.708;23.312;2023-06-14T06:37:51;143374.00;;;20.91;100.00
788;BME280;16074;42.708;23.312;2023-06-14T06:40:21;143380.09;;;20.93;100.00
788;BME280;16074;42.708;23.312;2023-06-14T06:42:49;143387.34;;;20.96;100.00
788;BME280;16074;42.708;23.312;2023-06-14T06:45:19;143433.56;;;21.15;100.00
788;BME280;16074;42.708;23.312;2023-06-14T06:47:51;143423.81;;;21.11;100.00
788;BME280;16074;42.708;23.312;2023-06-14T06:50:20;143445.72;;;21.20;100.00
788;BME280;16074;42.708;23.312;2023-06-14T06:52:50;143463.94;;;21.28;100.00
788;BME280;16074;42.708;23.312;2023-06-14T06:55:18;143468.78;;;21.30;100.00
788;BME280;16074;42.708;23.312;2023-06-14T06:57:48;143460.31;;;21.26;100.00
788;BME280;16074;42.708;23.312;2023-06-14T07:00:19;143444.53;;;21.20;100.00
788;BME280;16074;42.708;23.312;2023-06-14T07:02:48;143398.31;;;21.01;100.00
788;BME280;16074;42.708;23.312;2023-06-14T07:05:16;143406.81;;;21.04;100.00
788;BME280;16074;42.708;23.312;2023-06-14T07:07:45;143412.91;;;21.07;100.00
788;BME280;16074;42.708;23.312;2023-06-14T07:10:14;143405.59;;;21.04;100.00
788;BME280;16074;42.708;23.312;2023-06-14T07:12:42;143440.84;;;21.18;100.00
788;BME280;16074;42.708;23.312;2023-06-14T07:15:12;143476.09;;;21.33;100.00
788;BME280;16074;42.708;23.312;2023-06-14T07:17:41;143505.28;;;21.45;100.00
788;BME280;16074;42.708;23.312;2023-06-14T07:20:10;143552.75;;;21.64;100.00
788;BME280;16074;42.708;23.312;2023-06-14T07:22:40;143579.50;;;21.75;100.00
788;BME280;16074;42.708;23.312;2023-06-14T07:25:10;143642.78;;;22.01;100.00
788;BME280;16074;42.708;23.312;2023-06-14T07:27:41;143713.31;;;22.30;100.00
788;BME280;16074;42.708;23.312;2023-06-14T07:30:12;143760.81;;;22.49;100.00
788;BME280;16074;42.708;23.312;2023-06-14T07:32:40;143768.13;;;22.52;100.00
788;BME280;16074;42.708;23.312;2023-06-14T07:35:09;143782.72;;;22.58;100.00
788;BME280;16074;42.708;23.312;2023-06-14T07:37:37;143854.53;;;22.88;100.00
788;BME280;16074;42.708;23.312;2023-06-14T07:40:07;143893.50;;;23.03;100.00
788;BME280;16074;42.708;23.312;2023-06-14T07:42:35;143919.09;;;23.14;100.00
788;BME280;16074;42.708;23.312;2023-06-14T07:45:05;143956.84;;;23.29;100.00
788;BME280;16074;42.708;23.312;2023-06-14T07:47:35;143944.66;;;23.24;100.00
788;BME280;16074;42.708;23.312;2023-06-14T07:50:04;143925.22;;;23.16;100.00
788;BME280;16074;42.708;23.312;2023-06-14T07:52:34;143928.84;;;23.18;100.00
788;BME280;16074;42.708;23.312;2023-06-14T07:55:03;143887.41;;;23.01;100.00
788;BME280;16074;42.708;23.312;2023-06-14T07:57:32;143906.94;;;23.09;100.00
788;BME280;16074;42.708;23.312;2023-06-14T08:00:00;143910.59;;;23.10;100.00
788;BME280;16074;42.708;23.312;2023-06-14T08:02:39;143969.03;;;23.34;100.00
788;BME280;16074;42.708;23.312;2023-06-14T08:05:09;144008.00;;;23.50;100.00
788;BME280;16074;42.708;23.312;2023-06-14T08:07:37;144072.56;;;23.77;100.00
788;BME280;16074;42.708;23.312;2023-06-14T08:10:06;144117.69;;;23.95;100.00
788;BME280;16074;42.708;23.312;2023-06-14T08:12:36;144048.19;;;23.67;98.63
788;BME280;16074;42.708;23.312;2023-06-14T08:15:05;144088.44;;;23.83;100.00
788;BME280;16074;42.708;23.312;2023-06-14T08:17:43;144131.13;;;24.01;100.00
788;BME280;16074;42.708;23.312;2023-06-14T08:20:12;144178.63;;;24.20;98.05
788;BME280;16074;42.708;23.312;2023-06-14T08:22:44;144211.53;;;24.33;97.50
788;BME280;16074;42.708;23.312;2023-06-14T08:25:14;144233.47;;;24.42;93.04
788;BME280;16074;42.708;23.312;2023-06-14T08:27:43;144254.22;;;24.51;92.73
788;BME280;16074;42.708;23.312;2023-06-14T08:30:12;144285.91;;;24.64;88.41
788;BME280;16074;42.708;23.312;2023-06-14T08:32:42;144350.53;;;24.90;92.28
788;BME280;16074;42.708;23.312;2023-06-14T08:35:11;144389.56;;;25.06;86.69
788;BME280;16074;42.708;23.312;2023-06-14T08:37:41;144409.09;;;25.14;85.33
788;BME280;16074;42.708;23.312;2023-06-14T08:40:19;144466.47;;;25.38;82.09
788;BME280;16074;42.708;23.312;2023-06-14T08:42:51;144498.16;;;25.50;80.79
788;BME280;16074;42.708;23.312;2023-06-14T08:45:20;144503.03;;;25.52;85.09
788;BME280;16074;42.708;23.312;2023-06-14T08:47:53;144531.13;;;25.64;82.32
788;BME280;16074;42.708;23.312;2023-06-14T08:50:26;144581.19;;;25.84;83.86
788;BME280;16074;42.708;23.312;2023-06-14T08:52:59;144639.72;;;26.08;76.72
788;BME280;16074;42.708;23.312;2023-06-14T08:55:30;144615.38;;;25.98;78.95
788;BME280;16074;42.708;23.312;2023-06-14T08:58:03;144634.84;;;26.06;70.94
788;BME280;16074;42.708;23.312;2023-06-14T09:00:32;144650.75;;;26.13;70.65
788;BME280;16074;42.708;23.312;2023-06-14T09:03:03;144678.81;;;26.24;71.19
788;BME280;16074;42.708;23.312;2023-06-14T09:05:32;144678.81;;;26.24;74.51
788;BME280;16074;42.708;23.312;2023-06-14T09:08:01;144750.88;;;26.54;73.77
788;BME280;16074;42.708;23.312;2023-06-14T09:10:32;144837.59;;;26.89;78.18
788;BME280;16074;42.708;23.312;2023-06-14T09:13:02;144934.13;;;27.28;69.49
788;BME280;16074;42.708;23.312;2023-06-14T09:15:31;145036.81;;;27.70;65.59
788;BME280;16074;42.708;23.312;2023-06-14T09:18:02;145053.91;;;27.77;63.80
788;BME280;16074;42.708;23.312;2023-06-14T09:20:31;145093.03;;;27.93;64.00
788;BME280;16074;42.708;23.312;2023-06-14T09:23:00;145203.09;;;28.38;67.27
788;BME280;16074;42.708;23.312;2023-06-14T09:25:29;145291.13;;;28.74;63.74
788;BME280;16074;42.708;23.312;2023-06-14T09:28:06;145316.84;;;28.84;61.34
788;BME280;16074;42.708;23.312;2023-06-14T09:30:36;145347.47;;;28.97;57.34
788;BME280;16074;42.708;23.312;2023-06-14T09:33:06;145294.81;;;28.75;61.42
788;BME280;16074;42.708;23.312;2023-06-14T09:35:35;145294.81;;;28.75;60.46
788;BME280;16074;42.708;23.312;2023-06-14T09:38:04;145239.78;;;28.53;58.08
788;BME280;16074;42.708;23.312;2023-06-14T09:40:35;145211.63;;;28.41;61.31
788;BME280;16074;42.708;23.312;2023-06-14T09:43:06;145220.22;;;28.45;61.92
788;BME280;16074;42.708;23.312;2023-06-14T09:45:38;145217.78;;;28.44;64.83
788;BME280;16074;42.708;23.312;2023-06-14T09:48:09;145128.47;;;28.07;63.14
788;BME280;16074;42.708;23.312;2023-06-14T09:50:38;145016.00;;;27.62;62.24
788;BME280;16074;42.708;23.312;2023-06-14T09:53:09;145008.66;;;27.59;64.81
788;BME280;16074;42.708;23.312;2023-06-14T09:55:40;144996.44;;;27.54;64.28
788;BME280;16074;42.708;23.312;2023-06-14T09:58:10;144952.44;;;27.36;65.33
788;BME280;16074;42.708;23.312;2023-06-14T10:00:39;144874.25;;;27.04;66.79
788;BME280;16074;42.708;23.312;2023-06-14T10:03:15;144902.38;;;27.15;69.24
788;BME280;16074;42.708;23.312;2023-06-14T10:05:48;144909.69;;;27.18;67.85
788;BME280;16074;42.708;23.312;2023-06-14T10:08:19;144979.34;;;27.47;65.76
788;BME280;16074;42.708;23.312;2023-06-14T10:10:48;144986.66;;;27.50;62.93
788;BME280;16074;42.708;23.312;2023-06-14T10:13:17;144981.78;;;27.48;65.62
788;BME280;16074;42.708;23.312;2023-06-14T10:15:54;144967.09;;;27.42;65.02
788;BME280;16074;42.708;23.312;2023-06-14T10:18:33;145064.91;;;27.82;64.81
788;BME280;16074;42.708;23.312;2023-06-14T10:21:08;145230.00;;;28.49;62.93
788;BME280;16074;42.708;23.312;2023-06-14T10:23:42;145396.41;;;29.17;58.89
788;BME280;16074;42.708;23.312;2023-06-14T10:26:20;145561.66;;;29.84;56.58
788;BME280;16074;42.708;23.312;2023-06-14T10:28:57;145790.72;;;30.77;54.34
788;BME280;16074;42.708;23.312;2023-06-14T10:31:41;145921.84;;;31.30;49.83
788;BME280;16074;42.708;23.312;2023-06-14T10:34:12;146066.50;;;31.89;48.35
788;BME280;16074;42.708;23.312;2023-06-14T10:36:42;146145.06;;;32.21;45.85
788;BME280;16074;42.708;23.312;2023-06-14T10:39:15;146225.97;;;32.54;46.60
788;BME280;16074;42.708;23.312;2023-06-14T10:41:51;146135.25;;;32.17;46.06
788;BME280;16074;42.708;23.312;2023-06-14T10:44:42;146109.41;;;32.06;45.81
788;BME280;16074;42.708;23.312;2023-06-14T10:47:21;146084.94;;;31.96;44.70
788;BME280;16074;42.708;23.312;2023-06-14T10:49:53;146059.16;;;31.86;47.90
788;BME280;16074;42.708;23.312;2023-06-14T10:52:27;146318.03;;;32.91;45.09
788;BME280;16074;42.708;23.312;2023-06-14T10:55:01;146478.81;;;33.56;43.51
788;BME280;16074;42.708;23.312;2023-06-14T10:57:31;146620.13;;;34.14;42.69
788;BME280;16074;42.708;23.312;2023-06-14T11:00:15;146726.94;;;34.57;40.15
788;BME280;16074;42.708;23.312;2023-06-14T11:05:56;146681.50;;;34.38;41.28
788;BME280;16074;42.708;23.312;2023-06-14T11:08:34;146567.28;;;33.92;42.61
788;BME280;16074;42.708;23.312;2023-06-14T11:11:07;146475.16;;;33.55;42.75
788;BME280;16074;42.708;23.312;2023-06-14T11:13:38;146329.06;;;32.96;43.61
788;BME280;16074;42.708;23.312;2023-06-14T11:16:11;146335.22;;;32.98;43.89
788;BME280;16074;42.708;23.312;2023-06-14T11:18:41;146363.41;;;33.09;42.14
788;BME280;16074;42.708;23.312;2023-06-14T11:21:11;146309.41;;;32.88;42.75
788;BME280;16074;42.708;23.312;2023-06-14T11:23:39;146287.38;;;32.79;44.70
788;BME280;16074;42.708;23.312;2023-06-14T11:26:07;146370.78;;;33.12;44.20
788;BME280;16074;42.708;23.312;2023-06-14T11:28:37;146442.03;;;33.41;42.08
788;BME280;16074;42.708;23.312;2023-06-14T11:31:06;146553.75;;;33.87;42.16
788;BME280;16074;42.708;23.312;2023-06-14T11:33:35;146649.59;;;34.26;41.01
788;BME280;16074;42.708;23.312;2023-06-14T11:36:05;146715.88;;;34.52;39.97
788;BME280;16074;42.708;23.312;2023-06-14T11:38:37;146862.22;;;35.12;38.87
788;BME280;16074;42.708;23.312;2023-06-14T11:41:05;146856.00;;;35.09;39.49
788;BME280;16074;42.708;23.312;2023-06-14T11:43:34;146928.53;;;35.39;38.05
788;BME280;16074;42.708;23.312;2023-06-14T11:46:03;147025.69;;;35.78;37.93
788;BME280;16074;42.708;23.312;2023-06-14T11:48:37;147072.44;;;35.97;37.14
788;BME280;16074;42.708;23.312;2023-06-14T11:51:06;146790.88;;;34.83;38.17
788;BME280;16074;42.708;23.312;2023-06-14T11:53:36;146666.75;;;34.33;39.40
788;BME280;16074;42.708;23.312;2023-06-14T11:56:05;146575.84;;;33.96;39.85
788;BME280;16074;42.708;23.312;2023-06-14T11:58:34;146461.63;;;33.49;39.93
788;BME280;16074;42.708;23.312;2023-06-14T12:01:03;146329.06;;;32.96;41.75
788;BME280;16074;42.708;23.312;2023-06-14T12:03:31;146143.81;;;32.20;43.01
788;BME280;16074;42.708;23.312;2023-06-14T12:06:07;146053.03;;;31.83;43.31
788;BME280;16074;42.708;23.312;2023-06-14T12:08:38;146057.94;;;31.85;41.68
788;BME280;16074;42.708;23.312;2023-06-14T12:11:12;146120.47;;;32.11;42.00
788;BME280;16074;42.708;23.312;2023-06-14T12:13:41;146246.81;;;32.62;41.81
788;BME280;16074;42.708;23.312;2023-06-14T12:16:11;146391.69;;;33.21;39.52
788;BME280;16074;42.708;23.312;2023-06-14T12:18:40;146505.88;;;33.67;40.26
788;BME280;16074;42.708;23.312;2023-06-14T12:21:10;146640.97;;;34.22;39.82
788;BME280;16074;42.708;23.312;2023-06-14T12:23:42;146873.25;;;35.16;36.86
788;BME280;16074;42.708;23.312;2023-06-14T12:26:13;146809.28;;;34.90;36.27
788;BME280;16074;42.708;23.312;2023-06-14T12:28:42;146639.78;;;34.22;37.30
788;BME280;16074;42.708;23.312;2023-06-14T12:31:11;146584.47;;;33.99;39.57
788;BME280;16074;42.708;23.312;2023-06-14T12:33:40;146825.28;;;34.97;37.34
788;BME280;16074;42.708;23.312;2023-06-14T12:36:10;146990.06;;;35.64;36.41
788;BME280;16074;42.708;23.312;2023-06-14T12:38:38;147015.88;;;35.74;37.12
788;BME280;16074;42.708;23.312;2023-06-14T12:41:08;147109.34;;;36.12;34.75
788;BME280;16074;42.708;23.312;2023-06-14T12:43:36;147056.44;;;35.90;34.80
788;BME280;16074;42.708;23.312;2023-06-14T12:46:04;147063.81;;;35.93;35.07
788;BME280;16074;42.708;23.312;2023-06-14T12:48:33;146876.91;;;35.18;35.91
788;BME280;16074;42.708;23.312;2023-06-14T12:51:01;146643.44;;;34.23;37.36
788;BME280;16074;42.708;23.312;2023-06-14T12:53:29;146422.38;;;33.33;38.25
788;BME280;16074;42.708;23.312;2023-06-14T12:55:58;146280.00;;;32.76;38.36
788;BME280;16074;42.708;23.312;2023-06-14T12:58:28;146294.75;;;32.82;38.52
788;BME280;16074;42.708;23.312;2023-06-14T13:00:56;146097.16;;;32.01;41.02
788;BME280;16074;42.708;23.312;2023-06-14T13:03:24;145861.75;;;31.06;41.94
788;BME280;16074;42.708;23.312;2023-06-14T13:05:53;145653.50;;;30.21;44.48
788;BME280;16074;42.708;23.312;2023-06-14T13:08:22;145505.31;;;29.61;45.32
788;BME280;16074;42.708;23.312;2023-06-14T13:10:51;145324.22;;;28.87;48.73